LRCK - CONSTANTA / MIHAIL KOGALNICEANU-CONSTANTA

Compiled: 21:32:34 on 19/01/2018

Latest METAR/SPECI Reports

METAR LRCK 192130Z 24006KT CAVOK 01/M03 Q1011 NOSIG=

Previous reports

METAR LRCK 192100Z 24006KT CAVOK 00/M03 Q1012 NOSIG=
METAR LRCK 192030Z 23007KT CAVOK 01/M02 Q1012 NOSIG=
METAR LRCK 192000Z 22004KT CAVOK 01/M02 Q1012 NOSIG=
METAR LRCK 191930Z 20004KT 140V220 CAVOK 01/M02 Q1012 NOSIG=

Latest TAF report

TAF LRCK 191700Z 1918/2018 VRB04KT CAVOK BECMG 2016/2018 5000 -RA BR BKN015 OVC035=

Valid WARNINGS

No valid warnings for LRCK